Sumburgh, United Kingdom
Current Conditions -  °F | °C
As of 2:20 PM on Friday 31 Oct 2014 (Local Time) from EGPB Reporting Station
Rain Showers Rain Showers  
Wind Chill: 54°   Ceiling: Unl
Heat Index: 54°   Visibility: 6mi
Dew Point: 54°   Wind: 16mph
Humidity: 100%   Direction: 160°SSE
Pressure: 29.65"   Gusts: NA
Location:  59.87°N, 1.29°W
Report Text: EGPB 311420Z 16014KT 9000 -SHRA FEW007 12/12 Q1004 NOSIG
Loading
Personal Weather Stations






























Interactive Weather Map
Tropical Storm Tracking
New forecast layout! Learn more

10-Day Weather Forecast

Advertisements
Track Severe Weather on mobile